createdAt,value
2018-11-02T17:12:46.876Z,6.47
2018-11-02T17:15:16.115Z,6.50
2018-11-02T17:17:46.488Z,7.33
2018-11-02T17:20:17.064Z,7.03
2018-11-02T17:22:46.610Z,7.67
2018-11-02T17:25:16.883Z,6.80
2018-11-02T17:27:46.395Z,7.67
2018-11-02T17:30:25.560Z,8.43
2018-11-02T17:32:56.612Z,7.70
2018-11-02T17:35:26.434Z,8.07
2018-11-02T17:37:58.114Z,8.63
2018-11-02T17:40:28.579Z,9.43
2018-11-02T17:42:58.158Z,9.80
2018-11-02T17:45:27.669Z,9.83
2018-11-02T17:47:58.227Z,10.10
2018-11-02T17:50:27.768Z,11.83
2018-11-02T17:52:57.467Z,11.03
2018-11-02T17:55:26.916Z,10.73
2018-11-02T17:57:56.966Z,10.97
2018-11-02T18:00:28.708Z,10.40
2018-11-02T18:02:58.562Z,10.10
2018-11-02T18:05:31.876Z,11.17
2018-11-02T18:08:03.498Z,11.53
2018-11-02T18:10:32.753Z,12.13
2018-11-02T18:13:03.371Z,12.93
2018-11-02T18:15:33.994Z,12.57
2018-11-02T18:18:03.232Z,11.63
2018-11-02T18:20:33.116Z,11.67
2018-11-02T18:23:02.305Z,11.37
2018-11-02T18:25:31.813Z,10.33
2018-11-02T18:28:01.225Z,11.23
2018-11-02T18:30:30.461Z,14.93
2018-11-02T18:32:59.636Z,13.87
2018-11-02T18:35:28.835Z,12.27
2018-11-02T18:38:08.867Z,12.67
2018-11-02T18:40:39.536Z,13.50
2018-11-02T18:43:08.922Z,13.27
2018-11-02T18:45:38.925Z,12.27
2018-11-02T18:48:08.484Z,12.80
2018-11-02T18:50:38.898Z,13.50
2018-11-02T18:53:08.139Z,12.80
2018-11-02T18:55:37.667Z,11.80
2018-11-02T18:58:07.034Z,11.83
2018-11-02T19:00:36.297Z,12.30
2018-11-02T19:03:05.982Z,12.20
2018-11-02T19:05:35.359Z,11.63
2018-11-02T19:08:05.049Z,11.97
2018-11-02T19:10:34.227Z,12.50
2018-11-02T19:13:03.792Z,11.83
2018-11-02T19:15:33.122Z,13.00
2018-11-02T19:18:02.293Z,13.13
2018-11-02T19:20:31.696Z,13.77
2018-11-02T19:23:00.899Z,15.33
2018-11-02T19:25:30.389Z,15.43
2018-11-02T19:27:59.731Z,17.00
2018-11-02T19:30:29.143Z,15.93
2018-11-02T19:32:59.478Z,14.40
2018-11-02T19:35:28.929Z,11.77
2018-11-02T19:37:59.057Z,12.53
2018-11-02T19:40:28.964Z,13.23
2018-11-02T19:42:58.381Z,12.53
2018-11-02T19:45:27.911Z,12.60
2018-11-02T19:48:01.227Z,12.17
2018-11-02T19:50:30.705Z,11.50
2018-11-02T19:53:00.093Z,12.37
2018-11-02T19:55:29.610Z,12.03
2018-11-02T19:57:58.699Z,13.97
2018-11-02T20:00:28.857Z,12.43
2018-11-02T20:02:58.714Z,12.33
2018-11-02T20:05:31.967Z,13.87
2018-11-02T20:08:02.118Z,13.13
2018-11-02T20:10:32.040Z,13.63
2018-11-02T20:13:01.791Z,14.77
2018-11-02T20:15:31.421Z,14.60
2018-11-02T20:18:03.023Z,13.57
2018-11-02T20:20:33.728Z,14.47
2018-11-02T20:23:04.091Z,14.70
2018-11-02T20:25:33.151Z,13.87
2018-11-02T20:28:03.069Z,14.00
2018-11-02T20:30:33.181Z,14.33
2018-11-02T20:33:02.545Z,14.33
2018-11-02T20:35:31.926Z,14.97
2018-11-02T20:38:01.298Z,14.97
2018-11-02T20:40:37.212Z,15.87
2018-11-02T20:43:06.915Z,14.57
2018-11-02T20:45:36.524Z,15.10
2018-11-02T20:48:05.760Z,15.00
2018-11-02T20:50:35.551Z,14.97
2018-11-02T20:53:05.295Z,14.80
2018-11-02T20:55:34.762Z,14.27
2018-11-02T20:58:03.942Z,14.57
2018-11-02T21:00:33.797Z,14.13
2018-11-02T21:03:02.834Z,15.73
2018-11-02T21:05:32.209Z,14.97
2018-11-02T21:08:01.443Z,14.93
2018-11-02T21:10:30.570Z,14.80
2018-11-02T21:13:02.089Z,15.30
2018-11-02T21:15:31.518Z,14.73
2018-11-02T21:18:01.686Z,16.13
2018-11-02T21:20:32.473Z,15.30
2018-11-02T21:23:01.682Z,15.27
2018-11-02T21:25:33.375Z,15.00
2018-11-02T21:28:03.191Z,14.33
2018-11-02T21:30:33.215Z,14.63
2018-11-02T21:33:02.416Z,15.57
2018-11-02T21:35:33.419Z,15.03
2018-11-02T21:38:08.688Z,15.27
2018-11-02T21:40:39.870Z,15.80
2018-11-02T21:43:09.384Z,15.60
2018-11-02T21:45:39.292Z,15.07
2018-11-02T21:48:09.259Z,16.10
2018-11-02T21:50:39.368Z,15.97
2018-11-02T21:53:09.590Z,16.20
2018-11-02T21:55:39.168Z,16.17
2018-11-02T21:58:08.356Z,15.67
2018-11-02T22:00:38.516Z,16.27
2018-11-02T22:03:08.715Z,16.57
2018-11-02T22:05:38.012Z,17.27
2018-11-02T22:08:08.074Z,16.87
2018-11-02T22:10:39.914Z,17.07
2018-11-02T22:13:09.624Z,16.70
2018-11-02T22:15:39.099Z,16.20
2018-11-02T22:18:10.779Z,16.53
2018-11-02T22:20:40.399Z,17.47
2018-11-02T22:23:11.338Z,17.87
2018-11-02T22:25:42.348Z,16.87
2018-11-02T22:28:12.084Z,16.43
2018-11-02T22:30:51.086Z,18.07
2018-11-02T22:33:21.281Z,17.40
2018-11-02T22:35:53.988Z,16.03
2018-11-02T22:38:23.769Z,16.90
2018-11-02T22:40:53.398Z,16.37
2018-11-02T22:43:28.462Z,16.50
2018-11-02T22:46:04.278Z,16.17
2018-11-02T22:48:33.513Z,16.23
2018-11-02T22:51:04.713Z,15.80
2018-11-02T22:53:38.221Z,16.00
2018-11-02T22:56:08.829Z,16.20
2018-11-02T22:58:40.493Z,16.17
2018-11-02T23:01:18.824Z,17.17
2018-11-02T23:03:51.060Z,15.27
2018-11-02T23:06:25.483Z,17.40
2018-11-02T23:08:56.315Z,16.93
2018-11-02T23:11:26.602Z,18.00
2018-11-02T23:13:56.052Z,16.80
2018-11-02T23:16:26.159Z,17.37
2018-11-02T23:18:55.759Z,16.57
2018-11-02T23:21:27.203Z,16.67
2018-11-02T23:24:01.678Z,15.00
2018-11-02T23:26:34.899Z,15.80
2018-11-02T23:29:07.642Z,15.47
2018-11-02T23:31:37.495Z,14.67
2018-11-02T23:34:06.916Z,14.77
2018-11-02T23:36:37.047Z,14.97
2018-11-02T23:39:07.919Z,14.43
2018-11-02T23:41:38.458Z,15.07
2018-11-02T23:44:08.006Z,14.73
2018-11-02T23:46:37.173Z,14.63
2018-11-02T23:49:07.978Z,14.50
2018-11-02T23:51:37.438Z,16.10
2018-11-02T23:54:08.204Z,15.90
2018-11-02T23:56:38.494Z,16.57
2018-11-02T23:59:07.795Z,15.23
